Terminal Aerodrome Forecast
Issued by NWS

Home | Current Version | Previous Version | Text Only | Print | Product List | Glossary On
Versions: 1 2 3 4 5 6 7 8 9 10 11 12 13 14 15 16 17 18 19
000
FTUS43 KSGF 180500
TAFBBG
TAF
KBBG 180520Z 1806/1906 14006KT P6SM FEW050 OVC150
     FM181000 13006KT P6SM VCSH SCT020 OVC050
      TEMPO 1810/1814 4SM BR
     FM181400 14006KT P6SM VCSH BKN025 OVC050
     FM181800 12008KT P6SM BKN030 OVC050
     FM190000 12004KT 6SM BR OVC020 PROB30 1900/1906 4SM -TSRA BR
      OVC020CB=

USA.gov is the U.S. government's official web portal to all federal, state and local government web resources and services.